sensor_id;sensor_type;location;lat;lon;timestamp;P1;durP1;ratioP1;P2;durP2;ratioP2
19388;SDS011;9830;41.876;23.474;2023-11-18T00:00:48;2.33;;;1.87;;
19388;SDS011;9830;41.876;23.474;2023-11-18T00:03:14;4.70;;;2.53;;
19388;SDS011;9830;41.876;23.474;2023-11-18T00:05:40;1.90;;;1.03;;
19388;SDS011;9830;41.876;23.474;2023-11-18T00:08:05;3.37;;;3.03;;
19388;SDS011;9830;41.876;23.474;2023-11-18T00:10:31;3.27;;;1.47;;
19388;SDS011;9830;41.876;23.474;2023-11-18T00:12:57;2.43;;;1.83;;
19388;SDS011;9830;41.876;23.474;2023-11-18T00:15:23;1.03;;;1.03;;
19388;SDS011;9830;41.876;23.474;2023-11-18T00:17:48;3.40;;;1.47;;
19388;SDS011;9830;41.876;23.474;2023-11-18T00:20:14;1.53;;;0.93;;
19388;SDS011;9830;41.876;23.474;2023-11-18T00:22:41;0.20;;;0.20;;
19388;SDS011;9830;41.876;23.474;2023-11-18T00:25:07;0.00;;;0.00;;
19388;SDS011;9830;41.876;23.474;2023-11-18T00:27:34;0.00;;;0.00;;
19388;SDS011;9830;41.876;23.474;2023-11-18T00:30:03;0.00;;;0.00;;
19388;SDS011;9830;41.876;23.474;2023-11-18T00:32:38;0.00;;;0.00;;
19388;SDS011;9830;41.876;23.474;2023-11-18T00:35:04;0.00;;;0.00;;
19388;SDS011;9830;41.876;23.474;2023-11-18T00:37:31;0.00;;;0.00;;
19388;SDS011;9830;41.876;23.474;2023-11-18T00:39:57;0.00;;;0.00;;
19388;SDS011;9830;41.876;23.474;2023-11-18T00:42:23;0.00;;;0.00;;
19388;SDS011;9830;41.876;23.474;2023-11-18T00:44:49;0.00;;;0.00;;
19388;SDS011;9830;41.876;23.474;2023-11-18T00:47:14;0.00;;;0.00;;
19388;SDS011;9830;41.876;23.474;2023-11-18T00:49:40;0.00;;;0.00;;
19388;SDS011;9830;41.876;23.474;2023-11-18T00:52:06;0.00;;;0.00;;
19388;SDS011;9830;41.876;23.474;2023-11-18T00:54:32;0.00;;;0.00;;
19388;SDS011;9830;41.876;23.474;2023-11-18T00:56:57;0.00;;;0.00;;
19388;SDS011;9830;41.876;23.474;2023-11-18T00:59:23;0.00;;;0.00;;
19388;SDS011;9830;41.876;23.474;2023-11-18T01:01:49;0.00;;;0.00;;
19388;SDS011;9830;41.876;23.474;2023-11-18T01:04:15;0.00;;;0.00;;
19388;SDS011;9830;41.876;23.474;2023-11-18T01:06:42;0.00;;;0.00;;
19388;SDS011;9830;41.876;23.474;2023-11-18T01:09:08;0.00;;;0.00;;
19388;SDS011;9830;41.876;23.474;2023-11-18T01:11:34;0.03;;;0.03;;
19388;SDS011;9830;41.876;23.474;2023-11-18T01:14:01;0.00;;;0.00;;
19388;SDS011;9830;41.876;23.474;2023-11-18T01:16:27;0.00;;;0.00;;
19388;SDS011;9830;41.876;23.474;2023-11-18T01:18:53;0.00;;;0.00;;
19388;SDS011;9830;41.876;23.474;2023-11-18T01:21:19;0.00;;;0.00;;
19388;SDS011;9830;41.876;23.474;2023-11-18T01:23:46;0.00;;;0.00;;
19388;SDS011;9830;41.876;23.474;2023-11-18T01:26:14;0.00;;;0.00;;
19388;SDS011;9830;41.876;23.474;2023-11-18T01:28:40;0.00;;;0.00;;
19388;SDS011;9830;41.876;23.474;2023-11-18T01:31:10;0.00;;;0.00;;
19388;SDS011;9830;41.876;23.474;2023-11-18T01:33:36;0.00;;;0.00;;
19388;SDS011;9830;41.876;23.474;2023-11-18T01:36:03;0.00;;;0.00;;
19388;SDS011;9830;41.876;23.474;2023-11-18T01:38:29;0.00;;;0.00;;
19388;SDS011;9830;41.876;23.474;2023-11-18T01:40:55;0.00;;;0.00;;
19388;SDS011;9830;41.876;23.474;2023-11-18T01:43:21;0.00;;;0.00;;
19388;SDS011;9830;41.876;23.474;2023-11-18T01:45:47;0.00;;;0.00;;
19388;SDS011;9830;41.876;23.474;2023-11-18T01:48:13;0.00;;;0.00;;
19388;SDS011;9830;41.876;23.474;2023-11-18T01:50:40;0.00;;;0.00;;
19388;SDS011;9830;41.876;23.474;2023-11-18T01:53:07;0.00;;;0.00;;
19388;SDS011;9830;41.876;23.474;2023-11-18T01:55:35;0.27;;;0.27;;
19388;SDS011;9830;41.876;23.474;2023-11-18T01:58:02;0.00;;;0.00;;
19388;SDS011;9830;41.876;23.474;2023-11-18T02:00:34;0.00;;;0.00;;
19388;SDS011;9830;41.876;23.474;2023-11-18T02:03:03;0.00;;;0.00;;
19388;SDS011;9830;41.876;23.474;2023-11-18T02:05:30;0.00;;;0.00;;
19388;SDS011;9830;41.876;23.474;2023-11-18T02:08:00;0.00;;;0.00;;
19388;SDS011;9830;41.876;23.474;2023-11-18T02:10:29;0.00;;;0.00;;
19388;SDS011;9830;41.876;23.474;2023-11-18T02:15:50;0.00;;;0.00;;
19388;SDS011;9830;41.876;23.474;2023-11-18T02:18:18;0.10;;;0.10;;
19388;SDS011;9830;41.876;23.474;2023-11-18T02:20:45;0.00;;;0.00;;
19388;SDS011;9830;41.876;23.474;2023-11-18T02:23:13;0.00;;;0.00;;
19388;SDS011;9830;41.876;23.474;2023-11-18T02:25:44;0.00;;;0.00;;
19388;SDS011;9830;41.876;23.474;2023-11-18T02:28:11;0.00;;;0.00;;
19388;SDS011;9830;41.876;23.474;2023-11-18T02:30:37;0.00;;;0.00;;
19388;SDS011;9830;41.876;23.474;2023-11-18T02:33:40;0.00;;;0.00;;
19388;SDS011;9830;41.876;23.474;2023-11-18T02:36:16;0.00;;;0.00;;
19388;SDS011;9830;41.876;23.474;2023-11-18T02:38:51;0.00;;;0.00;;
19388;SDS011;9830;41.876;23.474;2023-11-18T02:41:20;0.00;;;0.00;;
19388;SDS011;9830;41.876;23.474;2023-11-18T02:43:47;0.00;;;0.00;;
19388;SDS011;9830;41.876;23.474;2023-11-18T02:46:14;0.00;;;0.00;;
19388;SDS011;9830;41.876;23.474;2023-11-18T02:48:41;0.00;;;0.00;;
19388;SDS011;9830;41.876;23.474;2023-11-18T02:51:08;0.00;;;0.00;;
19388;SDS011;9830;41.876;23.474;2023-11-18T02:53:37;0.00;;;0.00;;
19388;SDS011;9830;41.876;23.474;2023-11-18T02:56:02;0.00;;;0.00;;
19388;SDS011;9830;41.876;23.474;2023-11-18T02:58:29;0.00;;;0.00;;
19388;SDS011;9830;41.876;23.474;2023-11-18T03:00:55;0.00;;;0.00;;
19388;SDS011;9830;41.876;23.474;2023-11-18T03:03:22;0.00;;;0.00;;
19388;SDS011;9830;41.876;23.474;2023-11-18T03:05:47;0.00;;;0.00;;
19388;SDS011;9830;41.876;23.474;2023-11-18T03:08:15;0.00;;;0.00;;
19388;SDS011;9830;41.876;23.474;2023-11-18T03:10:40;0.00;;;0.00;;
19388;SDS011;9830;41.876;23.474;2023-11-18T03:13:09;0.00;;;0.00;;
19388;SDS011;9830;41.876;23.474;2023-11-18T03:15:35;0.00;;;0.00;;
19388;SDS011;9830;41.876;23.474;2023-11-18T03:18:01;0.00;;;0.00;;
19388;SDS011;9830;41.876;23.474;2023-11-18T03:20:27;0.00;;;0.00;;
19388;SDS011;9830;41.876;23.474;2023-11-18T03:22:54;0.00;;;0.00;;
19388;SDS011;9830;41.876;23.474;2023-11-18T03:25:19;0.00;;;0.00;;
19388;SDS011;9830;41.876;23.474;2023-11-18T03:27:47;0.00;;;0.00;;
19388;SDS011;9830;41.876;23.474;2023-11-18T03:30:13;0.00;;;0.00;;
19388;SDS011;9830;41.876;23.474;2023-11-18T03:32:39;0.00;;;0.00;;
19388;SDS011;9830;41.876;23.474;2023-11-18T03:35:05;0.00;;;0.00;;
19388;SDS011;9830;41.876;23.474;2023-11-18T03:37:37;0.00;;;0.00;;
19388;SDS011;9830;41.876;23.474;2023-11-18T03:40:05;0.00;;;0.00;;
19388;SDS011;9830;41.876;23.474;2023-11-18T03:42:31;0.00;;;0.00;;
19388;SDS011;9830;41.876;23.474;2023-11-18T03:44:57;0.00;;;0.00;;
19388;SDS011;9830;41.876;23.474;2023-11-18T03:47:23;0.00;;;0.00;;
19388;SDS011;9830;41.876;23.474;2023-11-18T03:49:49;0.00;;;0.00;;
19388;SDS011;9830;41.876;23.474;2023-11-18T03:52:15;0.00;;;0.00;;
19388;SDS011;9830;41.876;23.474;2023-11-18T03:54:41;0.00;;;0.00;;
19388;SDS011;9830;41.876;23.474;2023-11-18T03:57:07;0.00;;;0.00;;
19388;SDS011;9830;41.876;23.474;2023-11-18T03:59:33;0.00;;;0.00;;
19388;SDS011;9830;41.876;23.474;2023-11-18T04:01:58;0.10;;;0.00;;
19388;SDS011;9830;41.876;23.474;2023-11-18T04:04:24;0.00;;;0.00;;
19388;SDS011;9830;41.876;23.474;2023-11-18T04:06:49;0.00;;;0.00;;
19388;SDS011;9830;41.876;23.474;2023-11-18T04:09:15;0.10;;;0.10;;
19388;SDS011;9830;41.876;23.474;2023-11-18T04:11:41;0.00;;;0.00;;
19388;SDS011;9830;41.876;23.474;2023-11-18T04:14:10;0.00;;;0.00;;
19388;SDS011;9830;41.876;23.474;2023-11-18T04:16:36;0.00;;;0.00;;
19388;SDS011;9830;41.876;23.474;2023-11-18T04:21:29;0.00;;;0.00;;
19388;SDS011;9830;41.876;23.474;2023-11-18T04:23:55;0.00;;;0.00;;
19388;SDS011;9830;41.876;23.474;2023-11-18T04:26:20;0.13;;;0.13;;
19388;SDS011;9830;41.876;23.474;2023-11-18T04:28:46;0.00;;;0.00;;
19388;SDS011;9830;41.876;23.474;2023-11-18T04:31:11;0.87;;;0.20;;
19388;SDS011;9830;41.876;23.474;2023-11-18T04:33:38;0.00;;;0.00;;
19388;SDS011;9830;41.876;23.474;2023-11-18T04:36:05;0.00;;;0.00;;
19388;SDS011;9830;41.876;23.474;2023-11-18T04:38:34;0.87;;;0.20;;
19388;SDS011;9830;41.876;23.474;2023-11-18T04:41:00;0.00;;;0.00;;
19388;SDS011;9830;41.876;23.474;2023-11-18T04:43:28;0.53;;;0.07;;
19388;SDS011;9830;41.876;23.474;2023-11-18T04:45:55;0.00;;;0.00;;
19388;SDS011;9830;41.876;23.474;2023-11-18T04:48:21;0.00;;;0.00;;
19388;SDS011;9830;41.876;23.474;2023-11-18T04:50:47;0.00;;;0.00;;
19388;SDS011;9830;41.876;23.474;2023-11-18T04:53:13;0.00;;;0.00;;
19388;SDS011;9830;41.876;23.474;2023-11-18T04:55:38;0.00;;;0.00;;
19388;SDS011;9830;41.876;23.474;2023-11-18T04:58:05;0.00;;;0.00;;
19388;SDS011;9830;41.876;23.474;2023-11-18T05:00:34;0.00;;;0.00;;
19388;SDS011;9830;41.876;23.474;2023-11-18T05:03:00;0.00;;;0.00;;
19388;SDS011;9830;41.876;23.474;2023-11-18T05:05:26;0.00;;;0.00;;
19388;SDS011;9830;41.876;23.474;2023-11-18T05:07:52;0.00;;;0.00;;
19388;SDS011;9830;41.876;23.474;2023-11-18T05:10:17;0.00;;;0.00;;
19388;SDS011;9830;41.876;23.474;2023-11-18T05:12:43;0.00;;;0.00;;
19388;SDS011;9830;41.876;23.474;2023-11-18T05:15:09;0.00;;;0.00;;
19388;SDS011;9830;41.876;23.474;2023-11-18T05:17:38;0.03;;;0.03;;
19388;SDS011;9830;41.876;23.474;2023-11-18T05:20:04;0.00;;;0.00;;
19388;SDS011;9830;41.876;23.474;2023-11-18T05:22:33;0.00;;;0.00;;
19388;SDS011;9830;41.876;23.474;2023-11-18T05:24:59;0.47;;;0.10;;
19388;SDS011;9830;41.876;23.474;2023-11-18T05:27:25;1.43;;;0.40;;
19388;SDS011;9830;41.876;23.474;2023-11-18T05:29:51;0.00;;;0.00;;
19388;SDS011;9830;41.876;23.474;2023-11-18T05:32:20;0.10;;;0.10;;
19388;SDS011;9830;41.876;23.474;2023-11-18T05:34:48;0.73;;;0.40;;
19388;SDS011;9830;41.876;23.474;2023-11-18T05:37:15;0.00;;;0.00;;
19388;SDS011;9830;41.876;23.474;2023-11-18T05:39:43;0.53;;;0.50;;
19388;SDS011;9830;41.876;23.474;2023-11-18T05:42:10;0.00;;;0.00;;
19388;SDS011;9830;41.876;23.474;2023-11-18T05:44:37;0.30;;;0.30;;
19388;SDS011;9830;41.876;23.474;2023-11-18T05:47:05;0.00;;;0.00;;
19388;SDS011;9830;41.876;23.474;2023-11-18T05:49:31;0.00;;;0.00;;
19388;SDS011;9830;41.876;23.474;2023-11-18T05:52:00;0.10;;;0.10;;
19388;SDS011;9830;41.876;23.474;2023-11-18T05:54:26;0.00;;;0.00;;
19388;SDS011;9830;41.876;23.474;2023-11-18T05:56:51;0.00;;;0.00;;
19388;SDS011;9830;41.876;23.474;2023-11-18T05:59:18;0.10;;;0.10;;
19388;SDS011;9830;41.876;23.474;2023-11-18T06:01:44;0.00;;;0.00;;
19388;SDS011;9830;41.876;23.474;2023-11-18T06:04:12;0.00;;;0.00;;
19388;SDS011;9830;41.876;23.474;2023-11-18T06:06:38;0.00;;;0.00;;
19388;SDS011;9830;41.876;23.474;2023-11-18T06:09:04;0.00;;;0.00;;
19388;SDS011;9830;41.876;23.474;2023-11-18T06:11:33;0.10;;;0.10;;
19388;SDS011;9830;41.876;23.474;2023-11-18T06:14:00;0.10;;;0.10;;
19388;SDS011;9830;41.876;23.474;2023-11-18T06:16:26;0.10;;;0.10;;
19388;SDS011;9830;41.876;23.474;2023-11-18T06:18:55;0.00;;;0.00;;
19388;SDS011;9830;41.876;23.474;2023-11-18T06:21:24;0.40;;;0.40;;
19388;SDS011;9830;41.876;23.474;2023-11-18T06:23:55;0.17;;;0.17;;
19388;SDS011;9830;41.876;23.474;2023-11-18T06:26:22;0.00;;;0.00;;
19388;SDS011;9830;41.876;23.474;2023-11-18T06:28:52;0.10;;;0.10;;
19388;SDS011;9830;41.876;23.474;2023-11-18T06:31:21;0.00;;;0.00;;
19388;SDS011;9830;41.876;23.474;2023-11-18T06:33:50;0.00;;;0.00;;
19388;SDS011;9830;41.876;23.474;2023-11-18T06:38:46;0.00;;;0.00;;
19388;SDS011;9830;41.876;23.474;2023-11-18T06:41:15;0.00;;;0.00;;
19388;SDS011;9830;41.876;23.474;2023-11-18T06:43:42;0.20;;;0.20;;
19388;SDS011;9830;41.876;23.474;2023-11-18T06:46:21;0.00;;;0.00;;
19388;SDS011;9830;41.876;23.474;2023-11-18T06:48:50;0.00;;;0.00;;
19388;SDS011;9830;41.876;23.474;2023-11-18T06:51:19;0.20;;;0.20;;
19388;SDS011;9830;41.876;23.474;2023-11-18T06:53:50;0.00;;;0.00;;
19388;SDS011;9830;41.876;23.474;2023-11-18T06:56:16;0.00;;;0.00;;
19388;SDS011;9830;41.876;23.474;2023-11-18T06:58:42;0.00;;;0.00;;
19388;SDS011;9830;41.876;23.474;2023-11-18T07:01:09;1.17;;;0.53;;
19388;SDS011;9830;41.876;23.474;2023-11-18T07:03:38;0.40;;;0.40;;
19388;SDS011;9830;41.876;23.474;2023-11-18T07:06:06;0.00;;;0.00;;
19388;SDS011;9830;41.876;23.474;2023-11-18T07:08:32;0.00;;;0.00;;
19388;SDS011;9830;41.876;23.474;2023-11-18T07:11:00;0.20;;;0.20;;
19388;SDS011;9830;41.876;23.474;2023-11-18T07:13:26;0.00;;;0.00;;
19388;SDS011;9830;41.876;23.474;2023-11-18T07:15:52;0.00;;;0.00;;
19388;SDS011;9830;41.876;23.474;2023-11-18T07:18:25;0.03;;;0.03;;
19388;SDS011;9830;41.876;23.474;2023-11-18T07:20:51;0.00;;;0.00;;
19388;SDS011;9830;41.876;23.474;2023-11-18T07:23:18;0.00;;;0.00;;
19388;SDS011;9830;41.876;23.474;2023-11-18T07:25:44;0.00;;;0.00;;
19388;SDS011;9830;41.876;23.474;2023-11-18T07:28:11;0.00;;;0.00;;
19388;SDS011;9830;41.876;23.474;2023-11-18T07:30:40;0.00;;;0.00;;
19388;SDS011;9830;41.876;23.474;2023-11-18T07:33:07;0.00;;;0.00;;
19388;SDS011;9830;41.876;23.474;2023-11-18T07:35:34;0.43;;;0.20;;
19388;SDS011;9830;41.876;23.474;2023-11-18T07:38:02;0.00;;;0.00;;
19388;SDS011;9830;41.876;23.474;2023-11-18T07:40:27;0.00;;;0.00;;
19388;SDS011;9830;41.876;23.474;2023-11-18T07:42:54;15.37;;;0.43;;
19388;SDS011;9830;41.876;23.474;2023-11-18T07:45:21;0.00;;;0.00;;
19388;SDS011;9830;41.876;23.474;2023-11-18T07:47:49;0.00;;;0.00;;
19388;SDS011;9830;41.876;23.474;2023-11-18T07:50:16;0.03;;;0.03;;
19388;SDS011;9830;41.876;23.474;2023-11-18T07:52:50;0.00;;;0.00;;
19388;SDS011;9830;41.876;23.474;2023-11-18T07:55:16;0.00;;;0.00;;
19388;SDS011;9830;41.876;23.474;2023-11-18T07:57:42;0.00;;;0.00;;
19388;SDS011;9830;41.876;23.474;2023-11-18T08:00:08;0.00;;;0.00;;
19388;SDS011;9830;41.876;23.474;2023-11-18T08:02:37;0.00;;;0.00;;
19388;SDS011;9830;41.876;23.474;2023-11-18T08:05:04;0.00;;;0.00;;
19388;SDS011;9830;41.876;23.474;2023-11-18T08:07:36;0.13;;;0.10;;
19388;SDS011;9830;41.876;23.474;2023-11-18T08:10:02;0.00;;;0.00;;
19388;SDS011;9830;41.876;23.474;2023-11-18T08:12:29;0.00;;;0.00;;
19388;SDS011;9830;41.876;23.474;2023-11-18T08:14:56;0.00;;;0.00;;
19388;SDS011;9830;41.876;23.474;2023-11-18T08:17:24;0.00;;;0.00;;
19388;SDS011;9830;41.876;23.474;2023-11-18T08:19:53;0.97;;;0.40;;
19388;SDS011;9830;41.876;23.474;2023-11-18T08:22:19;0.00;;;0.00;;
19388;SDS011;9830;41.876;23.474;2023-11-18T08:24:48;0.00;;;0.00;;
19388;SDS011;9830;41.876;23.474;2023-11-18T08:27:14;0.00;;;0.00;;
19388;SDS011;9830;41.876;23.474;2023-11-18T08:29:40;2.37;;;0.30;;
19388;SDS011;9830;41.876;23.474;2023-11-18T08:32:06;0.00;;;0.00;;
19388;SDS011;9830;41.876;23.474;2023-11-18T08:34:34;0.00;;;0.00;;
19388;SDS011;9830;41.876;23.474;2023-11-18T08:37:02;0.00;;;0.00;;
19388;SDS011;9830;41.876;23.474;2023-11-18T08:39:32;0.00;;;0.00;;
19388;SDS011;9830;41.876;23.474;2023-11-18T08:41:58;0.00;;;0.00;;
19388;SDS011;9830;41.876;23.474;2023-11-18T08:44:24;0.00;;;0.00;;
19388;SDS011;9830;41.876;23.474;2023-11-18T08:46:52;0.00;;;0.00;;
19388;SDS011;9830;41.876;23.474;2023-11-18T08:49:18;0.40;;;0.40;;
19388;SDS011;9830;41.876;23.474;2023-11-18T08:51:49;0.00;;;0.00;;
19388;SDS011;9830;41.876;23.474;2023-11-18T08:54:21;0.00;;;0.00;;
19388;SDS011;9830;41.876;23.474;2023-11-18T08:56:53;0.00;;;0.00;;
19388;SDS011;9830;41.876;23.474;2023-11-18T08:59:20;0.00;;;0.00;;
19388;SDS011;9830;41.876;23.474;2023-11-18T09:01:52;0.10;;;0.10;;
19388;SDS011;9830;41.876;23.474;2023-11-18T09:04:27;0.00;;;0.00;;
19388;SDS011;9830;41.876;23.474;2023-11-18T09:06:53;0.00;;;0.00;;
19388;SDS011;9830;41.876;23.474;2023-11-18T09:09:25;0.20;;;0.20;;
19388;SDS011;9830;41.876;23.474;2023-11-18T09:11:57;0.00;;;0.00;;
19388;SDS011;9830;41.876;23.474;2023-11-18T09:14:23;0.00;;;0.00;;
19388;SDS011;9830;41.876;23.474;2023-11-18T09:16:51;0.30;;;0.30;;
19388;SDS011;9830;41.876;23.474;2023-11-18T09:19:20;0.00;;;0.00;;
19388;SDS011;9830;41.876;23.474;2023-11-18T09:21:46;0.00;;;0.00;;
19388;SDS011;9830;41.876;23.474;2023-11-18T09:24:12;0.13;;;0.13;;
19388;SDS011;9830;41.876;23.474;2023-11-18T09:26:39;0.40;;;0.40;;
19388;SDS011;9830;41.876;23.474;2023-11-18T09:29:06;0.00;;;0.00;;
19388;SDS011;9830;41.876;23.474;2023-11-18T09:31:36;0.50;;;0.13;;
19388;SDS011;9830;41.876;23.474;2023-11-18T09:34:02;0.80;;;0.80;;
19388;SDS011;9830;41.876;23.474;2023-11-18T09:36:32;0.00;;;0.00;;
19388;SDS011;9830;41.876;23.474;2023-11-18T09:38:58;0.00;;;0.00;;
19388;SDS011;9830;41.876;23.474;2023-11-18T09:41:25;0.03;;;0.03;;
19388;SDS011;9830;41.876;23.474;2023-11-18T09:43:52;0.00;;;0.00;;
19388;SDS011;9830;41.876;23.474;2023-11-18T09:46:28;0.00;;;0.00;;
19388;SDS011;9830;41.876;23.474;2023-11-18T09:51:50;0.10;;;0.10;;
19388;SDS011;9830;41.876;23.474;2023-11-18T09:59:58;0.00;;;0.00;;
19388;SDS011;9830;41.876;23.474;2023-11-18T10:02:47;0.00;;;0.00;;
19388;SDS011;9830;41.876;23.474;2023-11-18T10:05:15;0.03;;;0.03;;
19388;SDS011;9830;41.876;23.474;2023-11-18T10:07:45;0.87;;;0.87;;
19388;SDS011;9830;41.876;23.474;2023-11-18T10:10:12;0.33;;;0.33;;
19388;SDS011;9830;41.876;23.474;2023-11-18T10:12:44;0.10;;;0.10;;
19388;SDS011;9830;41.876;23.474;2023-11-18T10:15:13;0.00;;;0.00;;
19388;SDS011;9830;41.876;23.474;2023-11-18T10:17:43;0.00;;;0.00;;
19388;SDS011;9830;41.876;23.474;2023-11-18T10:23:11;0.10;;;0.10;;
19388;SDS011;9830;41.876;23.474;2023-11-18T10:25:46;0.60;;;0.60;;
19388;SDS011;9830;41.876;23.474;2023-11-18T10:28:23;0.07;;;0.07;;
19388;SDS011;9830;41.876;23.474;2023-11-18T10:30:55;0.67;;;0.47;;
19388;SDS011;9830;41.876;23.474;2023-11-18T10:33:36;0.00;;;0.00;;
19388;SDS011;9830;41.876;23.474;2023-11-18T10:36:03;0.00;;;0.00;;
19388;SDS011;9830;41.876;23.474;2023-11-18T10:38:38;0.00;;;0.00;;
19388;SDS011;9830;41.876;23.474;2023-11-18T10:41:12;0.00;;;0.00;;
19388;SDS011;9830;41.876;23.474;2023-11-18T10:43:38;1.67;;;0.40;;
19388;SDS011;9830;41.876;23.474;2023-11-18T10:46:07;0.33;;;0.33;;
19388;SDS011;9830;41.876;23.474;2023-11-18T10:48:50;0.00;;;0.00;;
19388;SDS011;9830;41.876;23.474;2023-11-18T10:51:19;0.00;;;0.00;;
19388;SDS011;9830;41.876;23.474;2023-11-18T10:53:49;0.00;;;0.00;;
19388;SDS011;9830;41.876;23.474;2023-11-18T10:56:23;0.00;;;0.00;;
19388;SDS011;9830;41.876;23.474;2023-11-18T10:58:55;0.00;;;0.00;;
19388;SDS011;9830;41.876;23.474;2023-11-18T11:01:31;0.00;;;0.00;;
19388;SDS011;9830;41.876;23.474;2023-11-18T11:03:58;0.00;;;0.00;;
19388;SDS011;9830;41.876;23.474;2023-11-18T11:06:25;0.37;;;0.30;;
19388;SDS011;9830;41.876;23.474;2023-11-18T11:08:55;0.00;;;0.00;;
19388;SDS011;9830;41.876;23.474;2023-11-18T11:11:24;0.20;;;0.20;;
19388;SDS011;9830;41.876;23.474;2023-11-18T11:13:57;0.10;;;0.10;;
19388;SDS011;9830;41.876;23.474;2023-11-18T11:16:33;2.70;;;0.67;;
19388;SDS011;9830;41.876;23.474;2023-11-18T11:19:08;0.03;;;0.03;;
19388;SDS011;9830;41.876;23.474;2023-11-18T11:22:00;0.37;;;0.37;;
19388;SDS011;9830;41.876;23.474;2023-11-18T11:27:28;0.00;;;0.00;;
19388;SDS011;9830;41.876;23.474;2023-11-18T11:30:08;0.23;;;0.23;;
19388;SDS011;9830;41.876;23.474;2023-11-18T11:35:23;0.00;;;0.00;;
19388;SDS011;9830;41.876;23.474;2023-11-18T11:37:54;0.10;;;0.10;;
19388;SDS011;9830;41.876;23.474;2023-11-18T11:40:42;0.00;;;0.00;;
19388;SDS011;9830;41.876;23.474;2023-11-18T11:43:11;0.00;;;0.00;;
19388;SDS011;9830;41.876;23.474;2023-11-18T11:45:38;0.00;;;0.00;;
19388;SDS011;9830;41.876;23.474;2023-11-18T11:48:05;0.00;;;0.00;;
19388;SDS011;9830;41.876;23.474;2023-11-18T11:50:48;0.00;;;0.00;;
19388;SDS011;9830;41.876;23.474;2023-11-18T11:53:22;0.00;;;0.00;;
19388;SDS011;9830;41.876;23.474;2023-11-18T11:55:54;0.00;;;0.00;;
19388;SDS011;9830;41.876;23.474;2023-11-18T11:58:34;0.10;;;0.10;;
19388;SDS011;9830;41.876;23.474;2023-11-18T12:04:00;0.00;;;0.00;;
19388;SDS011;9830;41.876;23.474;2023-11-18T12:06:32;0.00;;;0.00;;
19388;SDS011;9830;41.876;23.474;2023-11-18T12:09:00;0.20;;;0.20;;
19388;SDS011;9830;41.876;23.474;2023-11-18T12:11:35;0.40;;;0.30;;
19388;SDS011;9830;41.876;23.474;2023-11-18T12:14:07;0.00;;;0.00;;
19388;SDS011;9830;41.876;23.474;2023-11-18T12:19:39;0.00;;;0.00;;
19388;SDS011;9830;41.876;23.474;2023-11-18T12:22:19;0.00;;;0.00;;
19388;SDS011;9830;41.876;23.474;2023-11-18T12:35:29;0.00;;;0.00;;
19388;SDS011;9830;41.876;23.474;2023-11-18T12:40:51;0.00;;;0.00;;
19388;SDS011;9830;41.876;23.474;2023-11-18T12:43:17;0.10;;;0.10;;
19388;SDS011;9830;41.876;23.474;2023-11-18T12:48:41;0.00;;;0.00;;
19388;SDS011;9830;41.876;23.474;2023-11-18T12:51:09;0.00;;;0.00;;
19388;SDS011;9830;41.876;23.474;2023-11-18T12:53:46;0.13;;;0.13;;
19388;SDS011;9830;41.876;23.474;2023-11-18T12:56:14;0.07;;;0.07;;
19388;SDS011;9830;41.876;23.474;2023-11-18T12:58:41;0.47;;;0.47;;
19388;SDS011;9830;41.876;23.474;2023-11-18T13:01:08;0.00;;;0.00;;
19388;SDS011;9830;41.876;23.474;2023-11-18T13:03:39;0.00;;;0.00;;
19388;SDS011;9830;41.876;23.474;2023-11-18T13:06:08;0.07;;;0.07;;
19388;SDS011;9830;41.876;23.474;2023-11-18T13:08:36;0.00;;;0.00;;
19388;SDS011;9830;41.876;23.474;2023-11-18T13:11:03;0.00;;;0.00;;
19388;SDS011;9830;41.876;23.474;2023-11-18T13:13:33;0.00;;;0.00;;
19388;SDS011;9830;41.876;23.474;2023-11-18T13:15:59;0.00;;;0.00;;
19388;SDS011;9830;41.876;23.474;2023-11-18T13:18:27;0.00;;;0.00;;
19388;SDS011;9830;41.876;23.474;2023-11-18T13:20:54;0.00;;;0.00;;
19388;SDS011;9830;41.876;23.474;2023-11-18T13:23:24;0.00;;;0.00;;
19388;SDS011;9830;41.876;23.474;2023-11-18T13:25:53;0.00;;;0.00;;
19388;SDS011;9830;41.876;23.474;2023-11-18T13:28:24;0.00;;;0.00;;
19388;SDS011;9830;41.876;23.474;2023-11-18T13:30:50;0.40;;;0.10;;
19388;SDS011;9830;41.876;23.474;2023-11-18T13:33:16;0.20;;;0.10;;
19388;SDS011;9830;41.876;23.474;2023-11-18T13:35:42;0.10;;;0.10;;
19388;SDS011;9830;41.876;23.474;2023-11-18T13:38:08;0.17;;;0.17;;
19388;SDS011;9830;41.876;23.474;2023-11-18T13:40:45;0.00;;;0.00;;
19388;SDS011;9830;41.876;23.474;2023-11-18T13:43:12;1.33;;;0.67;;
19388;SDS011;9830;41.876;23.474;2023-11-18T13:45:40;0.40;;;0.30;;
19388;SDS011;9830;41.876;23.474;2023-11-18T13:48:07;0.10;;;0.10;;
19388;SDS011;9830;41.876;23.474;2023-11-18T13:50:37;0.30;;;0.30;;
19388;SDS011;9830;41.876;23.474;2023-11-18T13:53:05;0.20;;;0.20;;
19388;SDS011;9830;41.876;23.474;2023-11-18T13:55:31;0.00;;;0.00;;
19388;SDS011;9830;41.876;23.474;2023-11-18T13:57:57;0.00;;;0.00;;
19388;SDS011;9830;41.876;23.474;2023-11-18T14:00:24;0.10;;;0.10;;
19388;SDS011;9830;41.876;23.474;2023-11-18T14:02:55;0.20;;;0.20;;
19388;SDS011;9830;41.876;23.474;2023-11-18T14:05:21;0.00;;;0.00;;
19388;SDS011;9830;41.876;23.474;2023-11-18T14:07:49;0.10;;;0.10;;
19388;SDS011;9830;41.876;23.474;2023-11-18T14:10:17;0.00;;;0.00;;
19388;SDS011;9830;41.876;23.474;2023-11-18T14:13:00;0.00;;;0.00;;
19388;SDS011;9830;41.876;23.474;2023-11-18T14:15:27;0.00;;;0.00;;
19388;SDS011;9830;41.876;23.474;2023-11-18T14:17:55;0.00;;;0.00;;
19388;SDS011;9830;41.876;23.474;2023-11-18T14:20:20;0.00;;;0.00;;
19388;SDS011;9830;41.876;23.474;2023-11-18T14:22:48;0.00;;;0.00;;
19388;SDS011;9830;41.876;23.474;2023-11-18T14:25:14;0.00;;;0.00;;
19388;SDS011;9830;41.876;23.474;2023-11-18T14:27:40;0.00;;;0.00;;
19388;SDS011;9830;41.876;23.474;2023-11-18T14:30:06;0.00;;;0.00;;
19388;SDS011;9830;41.876;23.474;2023-11-18T14:32:34;0.67;;;0.43;;
19388;SDS011;9830;41.876;23.474;2023-11-18T14:35:00;0.50;;;0.30;;
19388;SDS011;9830;41.876;23.474;2023-11-18T14:37:26;0.00;;;0.00;;
19388;SDS011;9830;41.876;23.474;2023-11-18T14:39:52;0.00;;;0.00;;
19388;SDS011;9830;41.876;23.474;2023-11-18T14:42:20;0.00;;;0.00;;
19388;SDS011;9830;41.876;23.474;2023-11-18T14:44:47;0.00;;;0.00;;
19388;SDS011;9830;41.876;23.474;2023-11-18T14:47:14;0.00;;;0.00;;
19388;SDS011;9830;41.876;23.474;2023-11-18T14:49:41;0.00;;;0.00;;
19388;SDS011;9830;41.876;23.474;2023-11-18T14:52:07;0.00;;;0.00;;
19388;SDS011;9830;41.876;23.474;2023-11-18T14:54:33;0.00;;;0.00;;
19388;SDS011;9830;41.876;23.474;2023-11-18T14:57:01;0.00;;;0.00;;
19388;SDS011;9830;41.876;23.474;2023-11-18T14:59:28;0.00;;;0.00;;
19388;SDS011;9830;41.876;23.474;2023-11-18T15:01:54;0.00;;;0.00;;
19388;SDS011;9830;41.876;23.474;2023-11-18T15:04:22;1.30;;;0.87;;
19388;SDS011;9830;41.876;23.474;2023-11-18T15:06:49;0.00;;;0.00;;
19388;SDS011;9830;41.876;23.474;2023-11-18T15:09:18;0.00;;;0.00;;
19388;SDS011;9830;41.876;23.474;2023-11-18T15:11:46;0.00;;;0.00;;
19388;SDS011;9830;41.876;23.474;2023-11-18T15:14:15;0.00;;;0.00;;
19388;SDS011;9830;41.876;23.474;2023-11-18T15:16:41;0.00;;;0.00;;
19388;SDS011;9830;41.876;23.474;2023-11-18T15:19:07;0.00;;;0.00;;
19388;SDS011;9830;41.876;23.474;2023-11-18T15:21:32;0.00;;;0.00;;
19388;SDS011;9830;41.876;23.474;2023-11-18T15:23:58;0.50;;;0.20;;
19388;SDS011;9830;41.876;23.474;2023-11-18T15:26:26;0.00;;;0.00;;
19388;SDS011;9830;41.876;23.474;2023-11-18T15:28:52;0.10;;;0.10;;
19388;SDS011;9830;41.876;23.474;2023-11-18T15:31:18;0.00;;;0.00;;
19388;SDS011;9830;41.876;23.474;2023-11-18T15:33:44;0.10;;;0.10;;
19388;SDS011;9830;41.876;23.474;2023-11-18T15:36:11;0.10;;;0.10;;
19388;SDS011;9830;41.876;23.474;2023-11-18T15:38:37;0.00;;;0.00;;
19388;SDS011;9830;41.876;23.474;2023-11-18T15:41:03;0.10;;;0.10;;